Time;durP1;ratioP1;P1;durP2;ratioP2;P2;SDS_P1;SDS_P2;PMS_P1;PMS_P2;Temp;Humidity;BMP_temperature;BMP_pressure;BME280_temperature;BME280_humidity;BME280_pressure;Samples;Min_cycle;Max_cycle;Signal;HPM_P1;HPM_P2
2022/08/05 00:00:01;;;;;;;;;;;14.20;66.40;;;;;;5087166;28;20016;-79
2022/08/05 00:02:27;;;;;;;;;;;14.30;66.50;;;;;;5070118;28;19919;-79
2022/08/05 00:04:53;;;;;;;;;;;14.20;66.40;;;;;;5070086;28;19955;-79
2022/08/05 00:07:18;;;;;;;;;;;14.20;66.40;;;;;;5087291;28;19919;-79
2022/08/05 00:09:44;;;;;;;;;;;14.20;66.40;;;;;;5087269;28;19909;-79
2022/08/05 00:12:09;;;;;;;;;;;14.20;66.40;;;;;;5087098;28;20324;-79
2022/08/05 00:14:35;;;;;;;;;;;14.20;66.40;;;;;;5070095;28;19916;-79
2022/08/05 00:17:01;;;;;;;;;;;14.10;66.50;;;;;;5086806;28;20372;-79
2022/08/05 00:19:26;;;;;;;;;;;14.10;66.40;;;;;;5086831;28;19912;-79
2022/08/05 00:21:52;;;;;;;;;;;14.10;66.40;;;;;;5069813;28;19970;-79
2022/08/05 00:24:17;;;;;;;;;;;14.00;66.30;;;;;;5086690;28;20007;-79
2022/08/05 00:26:43;;;;;;;;;;;13.90;66.30;;;;;;5088367;28;19918;-79
2022/08/05 00:29:09;;;;;;;;;;;13.90;66.40;;;;;;5086620;28;20445;-79
2022/08/05 00:31:34;;;;;;;;;;;13.80;66.40;;;;;;5086833;28;19919;-79
2022/08/05 00:34:00;;;;;;;;;;;13.70;66.30;;;;;;5069877;28;19912;-79
2022/08/05 00:36:26;;;;;;;;;;;13.70;66.40;;;;;;5086854;28;20021;-79
2022/08/05 00:38:51;;;;;;;;;;;13.70;66.40;;;;;;5087930;28;19908;-79
2022/08/05 00:41:30;;;;;;;;;;;13.60;66.40;;;;;;5069957;28;19927;-79
2022/08/05 00:43:56;;;;;;;;;;;13.60;66.50;;;;;;5069818;28;19985;-79
2022/08/05 00:46:22;;;;;;;;;;;13.50;66.50;;;;;;5087983;28;20407;-79
2022/08/05 00:48:47;;;;;;;;;;;13.50;66.50;;;;;;5086652;28;19919;-79
2022/08/05 00:51:13;;;;;;;;;;;13.40;66.40;;;;;;5086622;28;19916;-79
2022/08/05 00:53:38;;;;;;;;;;;13.40;66.40;;;;;;5087678;28;19916;-79
2022/08/05 00:56:04;;;;;;;;;;;13.40;66.50;;;;;;5086751;28;20322;-79
2022/08/05 00:58:30;;;;;;;;;;;13.40;66.50;;;;;;5086522;28;19997;-79
2022/08/05 01:00:56;;;;;;;;;;;13.30;66.40;;;;;;5089228;28;20276;-79
2022/08/05 01:03:21;;;;;;;;;;;13.30;66.40;;;;;;5090306;28;19915;-78
2022/08/05 01:05:47;;;;;;;;;;;13.30;66.50;;;;;;5091732;28;20454;-78
2022/08/05 01:08:13;;;;;;;;;;;13.20;66.40;;;;;;5091877;28;19938;-79
2022/08/05 01:10:51;;;;;;;;;;;13.20;66.40;;;;;;5073340;28;19918;-79
2022/08/05 01:13:35;;;;;;;;;;;13.20;66.50;;;;;;5091611;28;20268;-79
2022/08/05 01:16:02;;;;;;;;;;;13.10;66.90;;;;;;5090112;28;19912;-79
2022/08/05 01:18:33;;;;;;;;;;;13.10;66.50;;;;;;5090286;28;19907;-79
2022/08/05 01:21:18;;;;;;;;;;;13.10;66.50;;;;;;5090244;28;19965;-78
2022/08/05 01:24:13;;;;;;;;;;;13.10;66.50;;;;;;5091241;28;19938;-79
2022/08/05 01:26:54;;;;;;;;;;;13.10;66.50;;;;;;5076951;28;19909;-79
2022/08/05 01:29:25;;;;;;;;;;;13.10;66.50;;;;;;5089941;28;20432;-78
2022/08/05 01:31:53;;;;;;;;;;;13.10;66.50;;;;;;5090388;28;19999;-79
2022/08/05 01:34:24;;;;;;;;;;;13.00;66.40;;;;;;5089889;28;19908;-79
2022/08/05 01:37:12;;;;;;;;;;;13.00;66.40;;;;;;5089901;28;19912;-79
2022/08/05 01:39:39;;;;;;;;;;;13.00;66.50;;;;;;5089525;28;19931;-79
2022/08/05 01:42:06;;;;;;;;;;;12.90;66.50;;;;;;5089917;28;20253;-79
2022/08/05 01:44:33;;;;;;;;;;;12.90;66.50;;;;;;5089846;28;19915;-79
2022/08/05 01:47:00;;;;;;;;;;;12.80;66.40;;;;;;5089718;28;19915;-79
2022/08/05 01:49:26;;;;;;;;;;;12.80;66.50;;;;;;5090851;28;19912;-78
2022/08/05 01:51:57;;;;;;;;;;;12.70;66.50;;;;;;5089729;28;20363;-79
2022/08/05 01:54:24;;;;;;;;;;;12.70;66.50;;;;;;5089411;28;20006;-79
2022/08/05 01:56:51;;;;;;;;;;;12.70;66.50;;;;;;5089597;28;19912;-79
2022/08/05 01:59:19;;;;;;;;;;;12.70;66.50;;;;;;5072540;28;19999;-79
2022/08/05 02:01:46;;;;;;;;;;;12.70;66.50;;;;;;5089468;28;19908;-79
2022/08/05 02:04:13;;;;;;;;;;;12.70;66.50;;;;;;5089272;28;19955;-79
2022/08/05 02:06:39;;;;;;;;;;;12.70;66.50;;;;;;5089446;28;20313;-78
2022/08/05 02:09:05;;;;;;;;;;;12.70;66.50;;;;;;5072533;28;19969;-79
2022/08/05 02:11:51;;;;;;;;;;;12.70;66.50;;;;;;5089170;28;20021;-79
2022/08/05 02:14:19;;;;;;;;;;;12.70;66.50;;;;;;5087988;28;19908;-79
2022/08/05 02:16:47;;;;;;;;;;;12.70;66.50;;;;;;5089051;28;20341;-79
2022/08/05 02:19:24;;;;;;;;;;;12.60;66.40;;;;;;5088911;28;19989;-78
2022/08/05 02:22:08;;;;;;;;;;;12.60;66.40;;;;;;5090578;28;19912;-79
2022/08/05 02:24:36;;;;;;;;;;;12.60;66.50;;;;;;5089041;28;19998;-79
2022/08/05 02:27:03;;;;;;;;;;;12.50;66.40;;;;;;5090181;28;20025;-79
2022/08/05 02:29:32;;;;;;;;;;;12.50;66.50;;;;;;5088911;28;19908;-79
2022/08/05 02:31:58;;;;;;;;;;;12.50;66.50;;;;;;5090160;28;19970;-79
2022/08/05 02:34:25;;;;;;;;;;;12.50;66.50;;;;;;5088865;28;19969;-79
2022/08/05 02:36:52;;;;;;;;;;;12.50;66.50;;;;;;5088640;28;19946;-79
2022/08/05 02:39:18;;;;;;;;;;;12.50;66.50;;;;;;5088325;28;19969;-78
2022/08/05 02:41:45;;;;;;;;;;;12.40;66.50;;;;;;5071854;28;19955;-78
2022/08/05 02:44:12;;;;;;;;;;;12.50;66.50;;;;;;5088497;28;20406;-78
2022/08/05 02:46:39;;;;;;;;;;;12.40;66.40;;;;;;5088506;28;20369;-78
2022/08/05 02:49:05;;;;;;;;;;;12.40;66.40;;;;;;5088528;28;19909;-78
2022/08/05 02:51:30;;;;;;;;;;;12.40;66.40;;;;;;5088345;28;19912;-78
2022/08/05 02:53:56;;;;;;;;;;;12.40;66.40;;;;;;5088356;28;19915;-78
2022/08/05 02:56:22;;;;;;;;;;;12.40;66.50;;;;;;5088518;28;19962;-78
2022/08/05 02:58:48;;;;;;;;;;;12.40;66.50;;;;;;5088097;28;19908;-78
2022/08/05 03:01:17;;;;;;;;;;;12.40;66.40;;;;;;5071457;28;19919;-78
2022/08/05 03:03:43;;;;;;;;;;;12.40;66.40;;;;;;5088042;28;20456;-78
2022/08/05 03:06:10;;;;;;;;;;;12.30;66.40;;;;;;5088140;28;19908;-78
2022/08/05 03:08:36;;;;;;;;;;;12.30;66.40;;;;;;5088207;28;19958;-78
2022/08/05 03:11:02;;;;;;;;;;;12.20;66.40;;;;;;5088014;28;19916;-78
2022/08/05 03:13:27;;;;;;;;;;;12.20;66.40;;;;;;5071150;28;20042;-79
2022/08/05 03:15:53;;;;;;;;;;;12.10;66.40;;;;;;5088165;28;20271;-78
2022/08/05 03:18:18;;;;;;;;;;;12.10;66.40;;;;;;5070978;28;20216;-77
2022/08/05 03:20:44;;;;;;;;;;;12.10;66.50;;;;;;5087762;28;19915;-79
2022/08/05 03:23:10;;;;;;;;;;;12.00;66.50;;;;;;5070296;28;19916;-78
2022/08/05 03:25:37;;;;;;;;;;;12.00;66.50;;;;;;5087711;28;19934;-79
2022/08/05 03:28:03;;;;;;;;;;;12.00;66.50;;;;;;5087589;28;19998;-78
2022/08/05 03:30:31;;;;;;;;;;;11.90;66.50;;;;;;5087690;28;19940;-78
2022/08/05 03:33:00;;;;;;;;;;;11.90;66.50;;;;;;5087639;28;19923;-78
2022/08/05 03:35:27;;;;;;;;;;;11.90;66.50;;;;;;5087668;28;19923;-78
2022/08/05 03:37:53;;;;;;;;;;;11.90;66.50;;;;;;5087635;28;19935;-78
2022/08/05 03:40:18;;;;;;;;;;;11.90;66.50;;;;;;5070412;28;19928;-78
2022/08/05 03:42:44;;;;;;;;;;;11.80;66.50;;;;;;5070606;28;19912;-78
2022/08/05 03:45:09;;;;;;;;;;;11.80;66.50;;;;;;5087374;28;19920;-78
2022/08/05 03:47:35;;;;;;;;;;;11.80;66.50;;;;;;5070499;28;19959;-78
2022/08/05 03:50:00;;;;;;;;;;;11.80;66.50;;;;;;5088557;28;19922;-78
2022/08/05 03:52:32;;;;;;;;;;;11.80;66.50;;;;;;5070349;28;19961;-78
2022/08/05 03:55:00;;;;;;;;;;;11.80;66.50;;;;;;5087116;28;20304;-78
2022/08/05 03:57:28;;;;;;;;;;;11.80;66.50;;;;;;5087157;28;20641;-78
2022/08/05 04:00:00;;;;;;;;;;;11.80;66.50;;;;;;5088371;28;19912;-78
2022/08/05 04:02:31;;;;;;;;;;;11.80;66.50;;;;;;5087256;28;19908;-78
2022/08/05 04:05:00;;;;;;;;;;;11.80;66.60;;;;;;5088515;28;20356;-78
2022/08/05 04:07:26;;;;;;;;;;;11.80;66.50;;;;;;5087045;28;20148;-80
2022/08/05 04:09:53;;;;;;;;;;;11.80;66.60;;;;;;5070215;28;19921;-78
2022/08/05 04:12:18;;;;;;;;;;;11.80;66.60;;;;;;5088440;28;19914;-78
2022/08/05 04:14:44;;;;;;;;;;;11.70;66.60;;;;;;5088399;28;20006;-79
2022/08/05 04:17:10;;;;;;;;;;;11.70;66.60;;;;;;5088614;28;19919;-77
2022/08/05 04:19:43;;;;;;;;;;;11.70;66.60;;;;;;5088211;28;19908;-78
2022/08/05 04:22:09;;;;;;;;;;;11.80;66.60;;;;;;5086999;28;19915;-79
2022/08/05 04:24:36;;;;;;;;;;;11.80;67.10;;;;;;5086813;28;20335;-79
2022/08/05 04:27:01;;;;;;;;;;;11.80;66.60;;;;;;5087019;28;20037;-78
2022/08/05 04:29:27;;;;;;;;;;;11.70;66.60;;;;;;5086775;28;20002;-78
2022/08/05 04:31:52;;;;;;;;;;;11.70;66.60;;;;;;5086754;28;20186;-78
2022/08/05 04:34:18;;;;;;;;;;;11.70;66.60;;;;;;5086871;28;19999;-78
2022/08/05 04:36:43;;;;;;;;;;;11.70;66.60;;;;;;5091049;28;19919;-78
2022/08/05 04:39:09;;;;;;;;;;;11.70;66.70;;;;;;5090806;28;20365;-78
2022/08/05 04:41:35;;;;;;;;;;;11.70;66.70;;;;;;5074230;28;19916;-78
2022/08/05 04:44:00;;;;;;;;;;;11.80;66.70;;;;;;5090801;28;19916;-79
2022/08/05 04:46:26;;;;;;;;;;;11.80;66.70;;;;;;5073874;28;19920;-80
2022/08/05 04:48:51;;;;;;;;;;;11.90;66.70;;;;;;5092225;28;19908;-80
2022/08/05 04:51:17;;;;;;;;;;;11.90;66.70;;;;;;5090767;28;20528;-80
2022/08/05 04:53:42;;;;;;;;;;;11.90;66.70;;;;;;5073929;28;19916;-80
2022/08/05 04:56:08;;;;;;;;;;;12.00;66.70;;;;;;5073686;28;20003;-77
2022/08/05 04:58:34;;;;;;;;;;;12.00;66.70;;;;;;5090325;28;19947;-80
2022/08/05 05:00:59;;;;;;;;;;;12.10;66.60;;;;;;5090621;28;19909;-80
2022/08/05 05:03:25;;;;;;;;;;;12.20;66.60;;;;;;5073381;28;19954;-80
2022/08/05 05:05:50;;;;;;;;;;;12.20;66.50;;;;;;5073467;28;19913;-77
2022/08/05 05:08:16;;;;;;;;;;;12.10;66.50;;;;;;5073701;28;19924;-80
2022/08/05 05:10:43;;;;;;;;;;;12.10;66.60;;;;;;5073370;28;20379;-80
2022/08/05 05:13:10;;;;;;;;;;;12.10;66.70;;;;;;5090284;28;19918;-79
2022/08/05 05:15:36;;;;;;;;;;;12.20;66.80;;;;;;5091643;28;20142;-80
2022/08/05 05:18:01;;;;;;;;;;;12.20;66.60;;;;;;5090228;28;20361;-80
2022/08/05 05:20:27;;;;;;;;;;;12.20;66.60;;;;;;5073342;28;20003;-81
2022/08/05 05:22:52;;;;;;;;;;;12.20;66.60;;;;;;5090045;28;20359;-80
2022/08/05 05:25:18;;;;;;;;;;;12.10;66.50;;;;;;5090160;28;20375;-80
2022/08/05 05:27:44;;;;;;;;;;;12.10;66.50;;;;;;5091251;28;20010;-80
2022/08/05 05:30:10;;;;;;;;;;;12.10;66.50;;;;;;5091010;28;19916;-79
2022/08/05 05:32:35;;;;;;;;;;;12.10;66.60;;;;;;5089966;28;19912;-80
2022/08/05 05:35:01;;;;;;;;;;;12.10;66.60;;;;;;5089951;28;19916;-77
2022/08/05 05:37:26;;;;;;;;;;;12.10;66.70;;;;;;5073331;28;20401;-78
2022/08/05 05:39:52;;;;;;;;;;;12.10;66.70;;;;;;5089536;28;19928;-79
2022/08/05 05:42:17;;;;;;;;;;;12.10;66.80;;;;;;5089552;28;19920;-78
2022/08/05 05:44:43;;;;;;;;;;;12.10;66.80;;;;;;5089534;28;19971;-80
2022/08/05 05:47:08;;;;;;;;;;;12.20;66.80;;;;;;5089158;28;19916;-78
2022/08/05 05:49:34;;;;;;;;;;;12.20;66.80;;;;;;5090543;28;19912;-78
2022/08/05 05:52:00;;;;;;;;;;;12.20;66.80;;;;;;5072620;28;20360;-77
2022/08/05 05:54:26;;;;;;;;;;;12.20;66.70;;;;;;5090691;28;19908;-80
2022/08/05 05:56:51;;;;;;;;;;;12.30;66.80;;;;;;5072602;28;20296;-77
2022/08/05 05:59:17;;;;;;;;;;;12.30;66.70;;;;;;5072464;28;20054;-78
2022/08/05 06:01:42;;;;;;;;;;;12.30;66.70;;;;;;5072529;28;19923;-78
2022/08/05 06:04:09;;;;;;;;;;;12.30;66.60;;;;;;5072452;28;19917;-78
2022/08/05 06:06:35;;;;;;;;;;;12.40;66.70;;;;;;5089250;28;19915;-78
2022/08/05 06:09:04;;;;;;;;;;;12.40;66.70;;;;;;5088987;28;19912;-78
2022/08/05 06:11:30;;;;;;;;;;;12.60;66.80;;;;;;5089019;28;19915;-79
2022/08/05 06:13:56;;;;;;;;;;;12.70;66.70;;;;;;5089041;28;19908;-78
2022/08/05 06:16:22;;;;;;;;;;;12.90;66.50;;;;;;5090617;28;20007;-78
2022/08/05 06:18:48;;;;;;;;;;;13.00;66.30;;;;;;5088990;28;19916;-78
2022/08/05 06:21:13;;;;;;;;;;;13.00;66.30;;;;;;5072241;28;20440;-78
2022/08/05 06:23:39;;;;;;;;;;;13.00;66.40;;;;;;5088894;28;19916;-79
2022/08/05 06:26:04;;;;;;;;;;;13.20;66.70;;;;;;5088816;28;19908;-78
2022/08/05 06:28:30;;;;;;;;;;;13.50;66.60;;;;;;5088707;28;19908;-78
2022/08/05 06:30:55;;;;;;;;;;;13.70;66.10;;;;;;5072178;28;19919;-78
2022/08/05 06:33:21;;;;;;;;;;;13.70;66.00;;;;;;5071824;28;19924;-78
2022/08/05 06:35:46;;;;;;;;;;;13.70;66.40;;;;;;5072281;28;19912;-79
2022/08/05 06:38:12;;;;;;;;;;;14.40;67.50;;;;;;5088942;28;19967;-78
2022/08/05 06:40:38;;;;;;;;;;;15.80;67.00;;;;;;5087938;28;19978;-79
2022/08/05 06:43:04;;;;;;;;;;;17.40;65.40;;;;;;5088233;28;19908;-78
2022/08/05 06:45:30;;;;;;;;;;;18.40;63.20;;;;;;5089902;28;20279;-79
2022/08/05 06:47:55;;;;;;;;;;;18.20;62.30;;;;;;5071388;28;19912;-78
2022/08/05 06:50:21;;;;;;;;;;;17.70;62.70;;;;;;5089551;28;20249;-78
2022/08/05 06:52:46;;;;;;;;;;;17.10;63.60;;;;;;5089347;28;20464;-78
2022/08/05 06:55:12;;;;;;;;;;;16.80;64.30;;;;;;5088430;28;19916;-79
2022/08/05 06:57:38;;;;;;;;;;;16.60;64.90;;;;;;5086802;28;19920;-78
2022/08/05 07:00:03;;;;;;;;;;;16.50;65.30;;;;;;5070546;28;19912;-78
2022/08/05 07:02:29;;;;;;;;;;;16.50;65.60;;;;;;5071229;28;19923;-78
2022/08/05 07:04:55;;;;;;;;;;;16.60;65.90;;;;;;5087812;28;20283;-78
2022/08/05 07:07:20;;;;;;;;;;;16.70;66.00;;;;;;5070859;28;20236;-79
2022/08/05 07:09:46;;;;;;;;;;;16.70;66.00;;;;;;5088967;28;20015;-78
2022/08/05 07:16:48;;;;;;;;;;;16.90;66.10;;;;;;5087821;28;19912;-78
2022/08/05 07:17:41;;;;;;;;;;;17.10;66.10;;;;;;5088511;28;19919;-79
2022/08/05 07:20:07;;;;;;;;;;;17.10;66.10;;;;;;5088412;28;19912;-78
2022/08/05 07:22:32;;;;;;;;;;;17.10;66.30;;;;;;5088652;28;19950;-79
2022/08/05 07:25:01;;;;;;;;;;;17.20;66.20;;;;;;5087220;28;20063;-79
2022/08/05 07:27:27;;;;;;;;;;;17.20;66.20;;;;;;5088752;28;19908;-79
2022/08/05 07:29:52;;;;;;;;;;;17.20;66.20;;;;;;5070785;28;19912;-79
2022/08/05 07:32:18;;;;;;;;;;;17.20;66.20;;;;;;5087147;28;19908;-77
2022/08/05 07:34:43;;;;;;;;;;;17.20;66.30;;;;;;5086872;28;19912;-78
2022/08/05 07:37:09;;;;;;;;;;;17.30;66.40;;;;;;5070294;28;20063;-79
2022/08/05 07:39:35;;;;;;;;;;;17.30;66.40;;;;;;5086852;28;19927;-81
2022/08/05 07:42:00;;;;;;;;;;;17.40;66.50;;;;;;5070101;28;19913;-79
2022/08/05 07:44:26;;;;;;;;;;;17.40;66.40;;;;;;5086836;28;19916;-78
2022/08/05 07:46:54;;;;;;;;;;;17.40;66.40;;;;;;5069477;28;21424;-79
2022/08/05 07:49:19;;;;;;;;;;;17.40;66.50;;;;;;5070209;28;19919;-79
2022/08/05 07:51:45;;;;;;;;;;;17.40;66.50;;;;;;5070350;28;19946;-79
2022/08/05 07:54:11;;;;;;;;;;;17.50;66.60;;;;;;5086989;28;19908;-79
2022/08/05 07:56:37;;;;;;;;;;;17.60;66.70;;;;;;5086804;28;19951;-79
2022/08/05 07:59:02;;;;;;;;;;;17.70;66.70;;;;;;5088494;28;19973;-80
2022/08/05 08:01:28;;;;;;;;;;;17.90;66.70;;;;;;5069930;28;19912;-79
2022/08/05 08:03:53;;;;;;;;;;;18.10;66.60;;;;;;5070166;28;19932;-79
2022/08/05 08:06:19;;;;;;;;;;;18.20;66.60;;;;;;5087164;28;19912;-79
2022/08/05 08:08:45;;;;;;;;;;;18.40;66.60;;;;;;5086966;28;20243;-80
2022/08/05 08:11:14;;;;;;;;;;;18.60;66.60;;;;;;5086761;28;19908;-69
2022/08/05 08:13:39;;;;;;;;;;;18.70;66.40;;;;;;5088009;28;19928;-81
2022/08/05 08:16:05;;;;;;;;;;;19.00;66.50;;;;;;5087136;28;20245;-80
2022/08/05 08:18:31;;;;;;;;;;;19.40;66.70;;;;;;5086616;28;19920;-81
2022/08/05 08:20:56;;;;;;;;;;;20.00;66.80;;;;;;5086399;28;19947;-81
2022/08/05 08:23:22;;;;;;;;;;;20.70;66.60;;;;;;5069637;28;19920;-81
2022/08/05 08:25:47;;;;;;;;;;;21.10;66.10;;;;;;5070026;28;19913;-79
2022/08/05 08:28:13;;;;;;;;;;;21.50;66.10;;;;;;5069366;28;19939;-78
2022/08/05 08:30:39;;;;;;;;;;;21.90;66.00;;;;;;5087550;28;19912;-79
2022/08/05 08:33:08;;;;;;;;;;;22.20;65.90;;;;;;5069227;28;19958;-80
2022/08/05 08:35:34;;;;;;;;;;;22.40;65.60;;;;;;5085951;28;19912;-79
2022/08/05 08:38:00;;;;;;;;;;;22.50;65.70;;;;;;5086467;28;19912;-80
2022/08/05 08:40:25;;;;;;;;;;;22.90;66.20;;;;;;5087294;28;20399;-80
2022/08/05 08:42:51;;;;;;;;;;;24.00;66.40;;;;;;5086228;28;20261;-80
2022/08/05 08:45:19;;;;;;;;;;;24.50;65.80;;;;;;5086539;28;19930;-80
2022/08/05 08:47:45;;;;;;;;;;;24.90;65.40;;;;;;5085957;28;19916;-80
2022/08/05 08:50:12;;;;;;;;;;;24.90;65.30;;;;;;5085759;28;19912;-79
2022/08/05 08:52:38;;;;;;;;;;;25.00;65.40;;;;;;5087313;28;20003;-79
2022/08/05 08:55:04;;;;;;;;;;;25.20;65.70;;;;;;5086179;28;19990;-79
2022/08/05 08:57:29;;;;;;;;;;;25.40;66.00;;;;;;5086393;28;19916;-79
2022/08/05 08:59:56;;;;;;;;;;;25.30;65.60;;;;;;5086150;28;20006;-80
2022/08/05 09:02:22;;;;;;;;;;;25.00;65.70;;;;;;5085746;28;20065;-79
2022/08/05 09:04:48;;;;;;;;;;;25.20;66.70;;;;;;5087278;28;20376;-79
2022/08/05 09:07:13;;;;;;;;;;;25.50;66.80;;;;;;5087254;28;19908;-80
2022/08/05 09:09:39;;;;;;;;;;;25.60;66.20;;;;;;5086221;28;20364;-80
2022/08/05 09:12:07;;;;;;;;;;;25.50;66.40;;;;;;5085845;28;20228;-80
2022/08/05 09:14:36;;;;;;;;;;;25.70;66.80;;;;;;5087016;28;19968;-80
2022/08/05 09:17:11;;;;;;;;;;;25.50;66.50;;;;;;5085745;28;19908;-79
2022/08/05 09:19:37;;;;;;;;;;;25.00;66.00;;;;;;5087249;28;19912;-79
2022/08/05 09:22:03;;;;;;;;;;;24.40;65.90;;;;;;5071608;28;19927;-79
2022/08/05 09:24:28;;;;;;;;;;;23.70;65.90;;;;;;5089412;28;19912;-80
2022/08/05 09:26:57;;;;;;;;;;;23.10;66.40;;;;;;5089103;28;20006;-80
2022/08/05 09:29:41;;;;;;;;;;;22.70;66.80;;;;;;5089474;28;19922;-79
2022/08/05 09:32:07;;;;;;;;;;;22.50;67.40;;;;;;5089266;28;19938;-79
2022/08/05 09:34:53;;;;;;;;;;;23.30;68.60;;;;;;5089322;28;20386;-81
2022/08/05 09:37:23;;;;;;;;;;;24.10;68.50;;;;;;5089377;28;20321;-80
2022/08/05 09:39:49;;;;;;;;;;;25.10;68.40;;;;;;5090176;28;19920;-78
2022/08/05 09:42:16;;;;;;;;;;;26.60;68.90;;;;;;5091111;28;20372;-80
2022/08/05 09:44:43;;;;;;;;;;;28.30;68.80;;;;;;5072426;28;19916;-70
2022/08/05 09:47:19;;;;;;;;;;;29.20;67.60;;;;;;5090520;28;19908;-80
2022/08/05 09:49:46;;;;;;;;;;;29.40;66.60;;;;;;5089168;28;19915;-80
2022/08/05 09:52:31;;;;;;;;;;;29.60;66.70;;;;;;5088856;28;19912;-80
2022/08/05 09:55:04;;;;;;;;;;;29.80;67.10;;;;;;5071866;28;19919;-80
2022/08/05 09:57:30;;;;;;;;;;;30.70;68.00;;;;;;5088545;28;19912;-80
2022/08/05 09:59:56;;;;;;;;;;;30.60;66.30;;;;;;5089841;28;20316;-79
2022/08/05 10:02:32;;;;;;;;;;;29.80;65.70;;;;;;5088270;28;20375;-79
2022/08/05 10:05:05;;;;;;;;;;;28.80;65.60;;;;;;5090002;28;19912;-78
2022/08/05 10:07:45;;;;;;;;;;;27.60;65.50;;;;;;5090393;28;20329;-79
2022/08/05 10:10:11;;;;;;;;;;;26.50;66.00;;;;;;5090054;28;19998;-80
2022/08/05 10:12:45;;;;;;;;;;;25.70;67.00;;;;;;5089321;28;19944;-80
2022/08/05 10:15:19;;;;;;;;;;;25.40;67.50;;;;;;5088241;28;20003;-81
2022/08/05 10:18:02;;;;;;;;;;;25.30;67.70;;;;;;5090005;28;19981;-79
2022/08/05 10:20:28;;;;;;;;;;;25.10;67.30;;;;;;5088058;28;20004;-80
2022/08/05 10:22:54;;;;;;;;;;;24.40;67.10;;;;;;5088035;28;19998;-80
2022/08/05 10:25:19;;;;;;;;;;;23.80;67.60;;;;;;5087856;28;20320;-80
2022/08/05 10:27:46;;;;;;;;;;;23.30;67.90;;;;;;5087771;28;19944;-79
2022/08/05 10:30:11;;;;;;;;;;;22.90;67.90;;;;;;5088024;28;20315;-79
2022/08/05 10:32:37;;;;;;;;;;;22.70;67.80;;;;;;5086484;28;19908;-79
2022/08/05 10:35:03;;;;;;;;;;;22.40;67.70;;;;;;5071185;28;19912;-80
2022/08/05 10:37:30;;;;;;;;;;;22.10;68.00;;;;;;5089458;28;19965;-79
2022/08/05 10:39:58;;;;;;;;;;;21.90;68.10;;;;;;5088380;28;19974;-80
2022/08/05 10:42:26;;;;;;;;;;;22.10;69.50;;;;;;5089253;28;19915;-80
2022/08/05 10:44:53;;;;;;;;;;;22.80;69.80;;;;;;5087964;28;19935;-81
2022/08/05 10:47:19;;;;;;;;;;;23.30;69.00;;;;;;5087645;28;19914;-80
2022/08/05 10:50:01;;;;;;;;;;;23.60;68.10;;;;;;5087660;28;19914;-80
2022/08/05 10:52:38;;;;;;;;;;;23.50;67.30;;;;;;5087481;28;19963;-80
2022/08/05 10:55:05;;;;;;;;;;;23.10;67.00;;;;;;5087498;28;19919;-79
2022/08/05 10:57:31;;;;;;;;;;;22.70;67.80;;;;;;5087203;28;19976;-80
2022/08/05 11:00:10;;;;;;;;;;;22.70;68.30;;;;;;5087378;28;19988;-80
2022/08/05 11:02:36;;;;;;;;;;;22.60;68.10;;;;;;5088467;28;20388;-75
2022/08/05 11:05:08;;;;;;;;;;;22.10;67.90;;;;;;5087503;28;19962;-80
2022/08/05 11:07:33;;;;;;;;;;;21.60;68.00;;;;;;5087429;28;19912;-79
2022/08/05 11:10:01;;;;;;;;;;;21.20;68.30;;;;;;5070482;28;19935;-79
2022/08/05 11:12:37;;;;;;;;;;;20.90;68.20;;;;;;5088883;28;20063;-80
2022/08/05 11:15:07;;;;;;;;;;;20.70;68.10;;;;;;5087323;28;20048;-79
2022/08/05 11:17:37;;;;;;;;;;;20.70;68.10;;;;;;5087175;28;20006;-79
2022/08/05 11:20:03;;;;;;;;;;;20.80;67.90;;;;;;5087802;28;20333;-80
2022/08/05 11:22:40;;;;;;;;;;;20.80;67.90;;;;;;5070150;28;19916;-80
2022/08/05 11:25:24;;;;;;;;;;;20.80;68.20;;;;;;5088149;28;19927;-80
2022/08/05 11:27:49;;;;;;;;;;;20.90;68.30;;;;;;5088090;28;19916;-79
2022/08/05 11:30:15;;;;;;;;;;;21.10;68.10;;;;;;5088167;28;19919;-80
2022/08/05 11:32:40;;;;;;;;;;;21.20;68.20;;;;;;5069816;28;19965;-80
2022/08/05 11:35:06;;;;;;;;;;;21.60;68.20;;;;;;5070454;28;19912;-80
2022/08/05 11:37:50;;;;;;;;;;;22.00;68.20;;;;;;5070398;28;20523;-80
2022/08/05 11:40:16;;;;;;;;;;;22.60;68.40;;;;;;5088157;28;19920;-80
2022/08/05 11:42:45;;;;;;;;;;;23.60;68.80;;;;;;5086757;28;19922;-80
2022/08/05 11:45:10;;;;;;;;;;;24.40;68.90;;;;;;5087931;28;19919;-80
2022/08/05 11:47:36;;;;;;;;;;;25.50;69.70;;;;;;5069613;28;20229;-81
2022/08/05 11:50:02;;;;;;;;;;;26.70;70.00;;;;;;5088070;28;19916;-81
2022/08/05 11:52:28;;;;;;;;;;;28.00;70.00;;;;;;5086790;28;19925;-81
2022/08/05 11:54:54;;;;;;;;;;;29.30;69.50;;;;;;5087680;28;19937;-80
2022/08/05 11:57:20;;;;;;;;;;;30.00;68.80;;;;;;5085773;28;19908;-81
2022/08/05 11:59:45;;;;;;;;;;;30.50;69.20;;;;;;5086048;28;19916;-81
2022/08/05 12:02:11;;;;;;;;;;;30.90;69.20;;;;;;5086749;28;19908;-80
2022/08/05 12:04:40;;;;;;;;;;;31.10;69.10;;;;;;5086663;28;19916;-81
2022/08/05 12:07:07;;;;;;;;;;;31.40;69.40;;;;;;5086397;28;19909;-81
2022/08/05 12:09:37;;;;;;;;;;;31.20;68.30;;;;;;5086357;28;19955;-76
2022/08/05 12:12:04;;;;;;;;;;;30.40;67.70;;;;;;5087666;28;20342;-81
2022/08/05 12:14:36;;;;;;;;;;;29.40;67.60;;;;;;5086378;28;19916;-80
2022/08/05 12:17:06;;;;;;;;;;;28.80;68.40;;;;;;5088055;28;20393;-78
2022/08/05 12:19:39;;;;;;;;;;;29.00;69.70;;;;;;5087054;28;20008;-81
2022/08/05 12:22:05;;;;;;;;;;;29.60;69.90;;;;;;5087671;28;19908;-81
2022/08/05 12:24:30;;;;;;;;;;;30.30;69.70;;;;;;5069290;28;19938;-81
2022/08/05 12:26:56;;;;;;;;;;;31.00;69.40;;;;;;5069468;28;19912;-81
2022/08/05 12:29:22;;;;;;;;;;;31.50;69.00;;;;;;5088539;28;20441;-81
2022/08/05 12:31:58;;;;;;;;;;;31.90;68.70;;;;;;5088204;28;19908;-81
2022/08/05 12:34:32;;;;;;;;;;;31.80;68.00;;;;;;5086193;28;19915;-81
2022/08/05 12:36:59;;;;;;;;;;;31.40;67.70;;;;;;5087670;28;19916;-81
2022/08/05 12:39:25;;;;;;;;;;;30.70;67.40;;;;;;5085822;28;19959;-81
2022/08/05 12:41:56;;;;;;;;;;;30.00;67.20;;;;;;5086491;28;20275;-81
2022/08/05 12:44:21;;;;;;;;;;;29.20;67.30;;;;;;5087678;28;19921;-81
2022/08/05 12:46:51;;;;;;;;;;;28.40;67.50;;;;;;5069574;28;20383;-81
2022/08/05 12:49:17;;;;;;;;;;;27.50;67.40;;;;;;5086130;28;19920;-81
2022/08/05 12:51:54;;;;;;;;;;;26.50;68.10;;;;;;5068968;28;19916;-80
2022/08/05 12:54:21;;;;;;;;;;;25.80;68.80;;;;;;5087711;28;19951;-79
2022/08/05 12:56:52;;;;;;;;;;;25.40;68.80;;;;;;5089730;28;20075;-80
2022/08/05 12:59:19;;;;;;;;;;;25.00;68.40;;;;;;5091165;28;19911;-79
2022/08/05 13:01:54;;;;;;;;;;;24.60;68.60;;;;;;5091060;28;20430;-78
2022/08/05 13:04:20;;;;;;;;;;;24.30;68.90;;;;;;5089667;28;19912;-79
2022/08/05 13:06:46;;;;;;;;;;;24.30;69.40;;;;;;5091025;28;19912;-79
2022/08/05 13:09:12;;;;;;;;;;;24.20;69.40;;;;;;5089351;28;20325;-71
2022/08/05 13:11:40;;;;;;;;;;;24.20;69.30;;;;;;5091565;28;20003;-79
2022/08/05 13:14:22;;;;;;;;;;;24.00;69.30;;;;;;5091508;28;19909;-79
2022/08/05 13:17:06;;;;;;;;;;;23.80;69.70;;;;;;5091289;28;19978;-79
2022/08/05 13:19:32;;;;;;;;;;;24.00;70.50;;;;;;5089486;28;20394;-79
2022/08/05 13:21:57;;;;;;;;;;;24.60;70.70;;;;;;5090597;28;19919;-81
2022/08/05 13:24:23;;;;;;;;;;;25.40;70.60;;;;;;5089459;28;20382;-79
2022/08/05 13:26:49;;;;;;;;;;;26.10;70.60;;;;;;5089916;28;19912;-80
2022/08/05 13:29:15;;;;;;;;;;;26.90;70.40;;;;;;5089456;28;19987;-80
2022/08/05 13:31:41;;;;;;;;;;;27.40;69.60;;;;;;5091395;28;20005;-80
2022/08/05 13:34:07;;;;;;;;;;;27.20;68.90;;;;;;5089069;28;19908;-80
2022/08/05 13:36:33;;;;;;;;;;;26.90;68.70;;;;;;5088984;28;20267;-80
2022/08/05 13:39:03;;;;;;;;;;;26.60;68.60;;;;;;5088425;28;19995;-80
2022/08/05 13:41:28;;;;;;;;;;;26.40;68.70;;;;;;5088625;28;19998;-80
2022/08/05 13:43:54;;;;;;;;;;;26.40;68.60;;;;;;5088700;28;20358;-79
2022/08/05 13:46:20;;;;;;;;;;;26.50;68.30;;;;;;5090037;28;20390;-80
2022/08/05 13:48:46;;;;;;;;;;;26.40;68.10;;;;;;5090406;28;19952;-80
2022/08/05 13:51:14;;;;;;;;;;;26.30;68.00;;;;;;5072032;28;19958;-79
2022/08/05 13:53:41;;;;;;;;;;;26.30;67.80;;;;;;5088085;28;19996;-74
2022/08/05 13:56:07;;;;;;;;;;;26.20;67.70;;;;;;5088871;28;19911;-80
2022/08/05 13:58:33;;;;;;;;;;;26.10;67.90;;;;;;5088958;28;20291;-80
2022/08/05 14:00:58;;;;;;;;;;;26.10;67.80;;;;;;5071700;28;19912;-79
2022/08/05 14:03:26;;;;;;;;;;;26.00;68.10;;;;;;5072119;28;20317;-79
2022/08/05 14:05:52;;;;;;;;;;;26.10;67.80;;;;;;5090273;28;20003;-79
2022/08/05 14:08:17;;;;;;;;;;;26.20;67.60;;;;;;5088197;28;20026;-79
2022/08/05 14:10:43;;;;;;;;;;;26.20;67.30;;;;;;5089788;28;19935;-79
2022/08/05 14:13:08;;;;;;;;;;;26.10;67.30;;;;;;5071630;28;19920;-80
2022/08/05 14:15:34;;;;;;;;;;;26.00;67.30;;;;;;5090126;28;20002;-79
2022/08/05 14:18:00;;;;;;;;;;;26.00;67.20;;;;;;5088277;28;19959;-79
2022/08/05 14:20:26;;;;;;;;;;;25.90;67.30;;;;;;5088247;28;19919;-74